Time;durP1;ratioP1;P1;durP2;ratioP2;P2;SDS_P1;SDS_P2;PMS_P1;PMS_P2;Temp;Humidity;BMP_temperature;BMP_pressure;BME280_temperature;BME280_humidity;BME280_pressure;Samples;Min_cycle;Max_cycle;Signal;HPM_P1;HPM_P2
2024/03/26 00:00:01;;;;;;;3.75;1.95;;;1.60;99.90;;;;;;5102179;28;20116;-66
2024/03/26 00:02:26;;;;;;;3.63;2.30;;;2.00;99.90;;;;;;5083314;28;20036;-66
2024/03/26 00:04:53;;;;;;;1.35;1.25;;;2.20;99.90;;;;;;5108481;28;20035;-64
2024/03/26 00:07:19;;;;;;;2.60;1.90;;;;;;;;;;5101449;28;20262;-64
2024/03/26 00:09:45;;;;;;;3.17;2.03;;;2.00;99.90;;;;;;5101380;28;20215;-65
2024/03/26 00:12:11;;;;;;;6.18;3.15;;;2.10;99.90;;;;;;5101026;28;20298;-64
2024/03/26 00:14:36;;;;;;;11.57;4.97;;;2.10;99.90;;;;;;5083040;28;20043;-65
2024/03/26 00:17:02;;;;;;;13.70;6.57;;;2.20;99.90;;;;;;5101543;28;20103;-65
2024/03/26 00:19:29;;;;;;;10.93;6.70;;;2.10;99.90;;;;;;5102091;28;20031;-65
2024/03/26 00:21:55;;;;;;;11.88;6.35;;;2.00;99.90;;;;;;5101023;28;20324;-67
2024/03/26 00:24:22;;;;;;;13.98;5.95;;;2.10;99.90;;;;;;5092186;28;20024;-67
2024/03/26 00:26:47;;;;;;;4.05;2.65;;;2.10;99.90;;;;;;5100822;28;20377;-65
2024/03/26 00:29:13;;;;;;;5.35;2.55;;;2.40;99.90;;;;;;5082405;28;20110;-68
2024/03/26 00:31:38;;;;;;;5.15;2.70;;;2.30;99.90;;;;;;5100834;28;20152;-68
2024/03/26 00:34:04;;;;;;;4.82;2.78;;;;;;;;;;5107522;28;20085;-67
2024/03/26 00:36:31;;;;;;;4.60;2.42;;;3.20;99.90;;;;;;5099295;28;20040;-65
2024/03/26 00:38:58;;;;;;;6.85;3.58;;;3.10;98.90;;;;;;5082538;28;20060;-68
2024/03/26 00:41:24;;;;;;;4.78;3.10;;;3.20;98.00;;;;;;5100648;28;20031;-67
2024/03/26 00:43:50;;;;;;;6.63;3.00;;;4.50;99.30;;;;;;5100696;28;20082;-69
2024/03/26 00:46:15;;;;;;;3.85;2.60;;;3.40;99.90;;;;;;5100424;28;20028;-67
2024/03/26 00:48:41;;;;;;;4.28;2.83;;;3.80;99.90;;;;;;5100737;28;20027;-69
2024/03/26 00:51:07;;;;;;;3.47;2.50;;;3.60;99.90;;;;;;5100948;28;20028;-69
2024/03/26 00:53:33;;;;;;;4.68;2.33;;;3.70;99.90;;;;;;5051833;28;20064;-68
2024/03/26 00:55:59;;;;;;;3.72;2.47;;;3.80;99.90;;;;;;5097486;28;20247;-69
2024/03/26 00:58:25;;;;;;;3.05;2.33;;;;;;;;;;5100408;28;20323;-67
2024/03/26 01:00:51;;;;;;;4.20;2.30;;;3.70;99.90;;;;;;5099990;28;20269;-70
2024/03/26 01:03:17;;;;;;;5.03;3.10;;;3.90;99.90;;;;;;5100127;28;20024;-71
2024/03/26 01:05:56;;;;;;;3.33;2.30;;;3.80;99.90;;;;;;5106199;27;20126;-70
2024/03/26 01:08:22;;;;;;;5.90;2.60;;;3.80;95.50;;;;;;5108630;27;20024;-70
2024/03/26 01:10:48;;;;;;;3.83;2.80;;;3.80;99.90;;;;;;5100038;28;20391;-72
2024/03/26 01:13:14;;;;;;;3.50;2.70;;;3.80;99.90;;;;;;5099778;28;20266;-72
2024/03/26 01:15:40;;;;;;;3.40;2.63;;;3.80;99.90;;;;;;5099920;28;20095;-72
2024/03/26 01:18:05;;;;;;;5.60;2.95;;;3.70;99.90;;;;;;5099697;28;20043;-70
2024/03/26 01:20:31;;;;;;;4.93;3.03;;;3.60;99.90;;;;;;5081731;28;20032;-71
2024/03/26 01:22:58;;;;;;;4.90;2.75;;;3.70;99.90;;;;;;5099596;28;20099;-69
2024/03/26 01:25:24;;;;;;;5.65;2.90;;;3.70;99.90;;;;;;5100413;28;20031;-70
2024/03/26 01:27:52;;;;;;;3.53;2.70;;;;;;;;;;5099625;28;20036;-70
2024/03/26 01:30:18;;;;;;;8.50;2.95;;;3.60;99.90;;;;;;5099532;28;20051;-71
2024/03/26 01:32:44;;;;;;;5.90;2.97;;;3.50;99.90;;;;;;5099577;28;20039;-71
2024/03/26 01:35:10;;;;;;;5.97;2.65;;;3.50;99.90;;;;;;5099384;28;20040;-70
2024/03/26 01:37:35;;;;;;;6.00;2.78;;;3.60;99.90;;;;;;5105299;28;20358;-71
2024/03/26 01:40:01;;;;;;;6.63;3.88;;;3.50;99.90;;;;;;5100928;28;20024;-71
2024/03/26 01:42:27;;;;;;;7.05;4.57;;;3.30;99.90;;;;;;5100204;28;20043;-72
2024/03/26 01:44:53;;;;;;;4.97;2.97;;;;;;;;;;5099500;28;20078;-70
2024/03/26 01:47:19;;;;;;;4.22;2.72;;;3.40;99.90;;;;;;5099682;28;20030;-71
2024/03/26 01:49:45;;;;;;;4.50;2.90;;;3.60;99.90;;;;;;5099676;28;20071;-68
2024/03/26 01:52:11;;;;;;;5.13;2.72;;;3.50;99.90;;;;;;5099341;28;20370;-68
2024/03/26 01:54:38;;;;;;;5.95;2.88;;;;;;;;;;5099735;28;20254;-68
2024/03/26 01:57:04;;;;;;;3.75;2.47;;;3.50;96.40;;;;;;5106097;28;20039;-68
2024/03/26 01:59:30;;;;;;;6.82;3.03;;;;;;;;;;5099779;28;20081;-68
2024/03/26 02:01:56;;;;;;;3.95;2.60;;;3.60;96.30;;;;;;5099129;28;20055;-68
2024/03/26 02:04:21;;;;;;;4.43;2.88;;;3.60;96.40;;;;;;5090796;28;20036;-68
2024/03/26 02:06:47;;;;;;;4.35;3.53;;;3.90;99.90;;;;;;5107039;28;20028;-68
2024/03/26 02:09:13;;;;;;;8.00;2.80;;;3.70;99.90;;;;;;5098971;28;20040;-68
2024/03/26 02:11:40;;;;;;;5.18;3.08;;;3.90;99.90;;;;;;5099206;28;20024;-68
2024/03/26 02:14:05;;;;;;;3.55;2.55;;;3.70;95.70;;;;;;5099109;28;20055;-68
2024/03/26 02:16:31;;;;;;;3.78;2.60;;;3.80;99.90;;;;;;5102322;28;20039;-67
2024/03/26 02:18:57;;;;;;;4.18;3.00;;;3.80;95.60;;;;;;5103245;28;20043;-67
2024/03/26 02:21:22;;;;;;;5.22;2.35;;;3.80;99.90;;;;;;5103032;28;20031;-68
2024/03/26 02:23:48;;;;;;;3.50;2.83;;;3.80;99.90;;;;;;5103288;28;20216;-68
2024/03/26 02:26:19;;;;;;;4.32;2.45;;;3.90;99.90;;;;;;5101985;27;20333;-68
2024/03/26 02:28:45;;;;;;;4.15;2.65;;;3.90;99.90;;;;;;5103399;28;20223;-66
2024/03/26 02:31:11;;;;;;;5.88;2.97;;;3.90;95.10;;;;;;5103287;28;20339;-67
2024/03/26 02:33:37;;;;;;;4.47;2.45;;;3.80;99.90;;;;;;5090913;28;20036;-66
2024/03/26 02:36:03;;;;;;;4.63;2.95;;;4.00;99.90;;;;;;5071147;28;20037;-67
2024/03/26 02:38:28;;;;;;;3.63;2.78;;;3.80;99.90;;;;;;5103179;28;20032;-67
2024/03/26 02:40:54;;;;;;;4.95;3.05;;;4.00;99.90;;;;;;5103456;28;20061;-67
2024/03/26 02:43:21;;;;;;;5.28;2.70;;;4.00;94.90;;;;;;5084304;28;20330;-67
2024/03/26 02:45:46;;;;;;;4.13;2.38;;;4.00;95.00;;;;;;5109369;28;20038;-67
2024/03/26 02:48:12;;;;;;;5.50;2.75;;;4.00;94.80;;;;;;5104243;28;20040;-66
2024/03/26 02:50:37;;;;;;;7.80;2.88;;;4.10;94.70;;;;;;5103487;28;20093;-67
2024/03/26 02:53:03;;;;;;;4.57;2.50;;;4.10;94.50;;;;;;5110664;28;20255;-67
2024/03/26 02:55:29;;;;;;;5.22;3.15;;;;;;;;;;5103072;28;20069;-67
2024/03/26 02:57:55;;;;;;;6.57;2.78;;;4.20;99.90;;;;;;5102458;28;20093;-66
2024/03/26 03:00:21;;;;;;;3.47;2.40;;;4.30;99.90;;;;;;5102470;28;20870;-66
2024/03/26 03:02:46;;;;;;;3.95;3.00;;;4.20;94.00;;;;;;5102451;28;20036;-66
2024/03/26 03:05:12;;;;;;;4.45;2.92;;;4.40;99.90;;;;;;5102351;28;20054;-66
2024/03/26 03:07:37;;;;;;;5.30;2.55;;;4.40;94.60;;;;;;5103139;28;20035;-67
2024/03/26 03:10:03;;;;;;;8.07;3.60;;;4.50;92.70;;;;;;5102152;28;20220;-66
2024/03/26 03:12:29;;;;;;;8.48;3.92;;;4.30;99.90;;;;;;5102361;28;20032;-67
2024/03/26 03:14:55;;;;;;;7.43;3.38;;;4.30;91.60;;;;;;5102296;28;20262;-67
2024/03/26 03:17:20;;;;;;;6.07;3.90;;;4.10;92.10;;;;;;5102485;28;20452;-67
2024/03/26 03:19:46;;;;;;;8.55;4.43;;;3.90;99.90;;;;;;5102383;28;20040;-68
2024/03/26 03:22:12;;;;;;;7.00;4.13;;;3.80;93.10;;;;;;5102124;28;20100;-67
2024/03/26 03:24:37;;;;;;;5.65;3.63;;;3.70;99.90;;;;;;5102852;28;20054;-67
2024/03/26 03:27:03;;;;;;;7.63;3.22;;;3.60;93.70;;;;;;5083398;28;20036;-69
2024/03/26 03:29:29;;;;;;;5.40;3.20;;;3.70;99.90;;;;;;5102187;28;20247;-68
2024/03/26 03:31:55;;;;;;;8.48;3.40;;;3.60;94.00;;;;;;5102058;28;20028;-67
2024/03/26 03:34:20;;;;;;;6.68;3.83;;;3.70;99.90;;;;;;5112293;28;20032;-67
2024/03/26 03:36:46;;;;;;;8.07;3.85;;;3.90;99.90;;;;;;5085019;28;20044;-67
2024/03/26 03:39:12;;;;;;;5.75;4.05;;;4.00;99.90;;;;;;5101727;28;20123;-67
2024/03/26 03:41:39;;;;;;;6.70;4.68;;;4.10;99.90;;;;;;5102122;28;20032;-67
2024/03/26 03:44:05;;;;;;;6.47;4.20;;;;;;;;;;5101532;28;20032;-67
2024/03/26 03:46:31;;;;;;;9.88;4.53;;;3.90;93.40;;;;;;5101459;28;20039;-67
2024/03/26 03:48:57;;;;;;;7.85;4.43;;;3.90;93.80;;;;;;5083323;28;20031;-69
2024/03/26 03:51:24;;;;;;;8.32;4.85;;;5.00;94.10;;;;;;5101676;28;20038;-67
2024/03/26 03:53:49;;;;;;;6.90;4.40;;;4.00;93.70;;;;;;5101616;28;20058;-68
2024/03/26 03:56:15;;;;;;;6.97;4.45;;;4.10;93.50;;;;;;5101184;28;20031;-69
2024/03/26 03:58:41;;;;;;;8.23;4.78;;;4.20;99.90;;;;;;5101834;28;20031;-68
2024/03/26 04:01:06;;;;;;;6.50;4.55;;;4.10;99.90;;;;;;5101236;28;20043;-69
2024/03/26 04:03:32;;;;;;;4.85;4.03;;;4.20;99.90;;;;;;5109591;28;20081;-69
2024/03/26 04:06:02;;;;;;;10.77;5.32;;;4.30;99.90;;;;;;5105702;27;20045;-67
2024/03/26 04:08:28;;;;;;;6.35;4.03;;;4.30;99.90;;;;;;5120871;27;20036;-67
2024/03/26 04:10:54;;;;;;;7.68;4.68;;;4.40;99.90;;;;;;5067081;28;20047;-66
2024/03/26 04:13:19;;;;;;;7.05;4.20;;;4.40;99.90;;;;;;5082545;28;20051;-66
2024/03/26 04:15:45;;;;;;;8.60;4.43;;;;;;;;;;5101131;28;20351;-66
2024/03/26 04:18:11;;;;;;;7.60;4.47;;;4.60;99.90;;;;;;5100326;28;20048;-68
2024/03/26 04:20:36;;;;;;;5.97;3.92;;;4.50;99.90;;;;;;5100413;28;20380;-68
2024/03/26 04:23:02;;;;;;;6.20;3.50;;;4.70;94.00;;;;;;5100387;28;20044;-69
2024/03/26 04:25:28;;;;;;;10.23;4.50;;;4.70;99.90;;;;;;5100905;28;20036;-69
2024/03/26 04:27:54;;;;;;;8.77;5.20;;;4.70;99.90;;;;;;5100784;28;20396;-66
2024/03/26 04:30:19;;;;;;;9.45;4.40;;;4.70;99.60;;;;;;5100246;28;20028;-68
2024/03/26 04:32:45;;;;;;;6.35;4.18;;;4.90;99.30;;;;;;5101196;28;20035;-67
2024/03/26 04:35:10;;;;;;;10.10;4.97;;;4.80;99.30;;;;;;5085842;28;20115;-69
2024/03/26 04:37:37;;;;;;;7.60;4.30;;;4.80;99.10;;;;;;5100739;28;20055;-67
2024/03/26 04:40:05;;;;;;;7.20;3.80;;;4.90;99.10;;;;;;5100197;28;20031;-70
2024/03/26 04:42:31;;;;;;;6.80;4.07;;;4.90;99.10;;;;;;5092279;28;20088;-70
2024/03/26 04:44:57;;;;;;;8.00;4.57;;;5.00;99.40;;;;;;5100268;28;20039;-69
2024/03/26 04:47:23;;;;;;;6.20;4.07;;;4.80;99.50;;;;;;5100750;28;20028;-68
2024/03/26 04:49:49;;;;;;;7.53;4.70;;;5.00;99.30;;;;;;5101109;28;20362;-69
2024/03/26 04:52:14;;;;;;;7.43;4.70;;;5.00;99.40;;;;;;5097337;28;20056;-69
2024/03/26 04:54:40;;;;;;;9.07;5.25;;;5.10;99.40;;;;;;5080324;28;20024;-69
2024/03/26 04:57:05;;;;;;;8.65;5.22;;;5.20;99.40;;;;;;5080282;28;20048;-68
2024/03/26 04:59:31;;;;;;;7.93;5.20;;;5.30;99.40;;;;;;5080039;28;20042;-69
2024/03/26 05:01:57;;;;;;;9.20;5.38;;;5.00;85.10;;;;;;5079958;28;20064;-66
2024/03/26 05:04:22;;;;;;;9.60;5.05;;;5.10;99.50;;;;;;5079930;28;20095;-67
2024/03/26 05:06:48;;;;;;;7.60;4.43;;;5.10;99.50;;;;;;5087745;28;20101;-67
2024/03/26 05:09:15;;;;;;;12.07;5.10;;;;;;;;;;5080684;28;20048;-69
2024/03/26 05:11:41;;;;;;;6.10;4.57;;;5.10;99.10;;;;;;5079845;28;20036;-68
2024/03/26 05:14:07;;;;;;;9.43;4.85;;;5.00;84.60;;;;;;5068070;28;20343;-65
2024/03/26 05:16:32;;;;;;;10.55;5.10;;;5.00;98.90;;;;;;5079954;28;20082;-65
2024/03/26 05:18:58;;;;;;;11.48;5.35;;;4.80;98.70;;;;;;5079251;28;20059;-67
2024/03/26 05:21:24;;;;;;;7.22;5.18;;;5.30;99.10;;;;;;5061633;28;20032;-66
2024/03/26 05:23:49;;;;;;;8.32;4.97;;;5.20;83.60;;;;;;5085683;28;20031;-66
2024/03/26 05:26:15;;;;;;;8.38;4.95;;;5.20;98.90;;;;;;5080435;28;20239;-67
2024/03/26 05:28:41;;;;;;;10.20;5.38;;;5.20;98.40;;;;;;5079447;28;20047;-66
2024/03/26 05:31:18;;;;;;;11.57;5.43;;;5.30;98.30;;;;;;5079982;28;20277;-64
2024/03/26 05:33:46;;;;;;;8.55;5.63;;;5.40;98.30;;;;;;5091600;28;20034;-65
2024/03/26 05:36:13;;;;;;;7.07;5.05;;;5.20;83.00;;;;;;5088783;28;20040;-65
2024/03/26 05:38:39;;;;;;;11.18;5.45;;;5.30;82.10;;;;;;5079681;28;20040;-65
2024/03/26 05:41:05;;;;;;;7.75;5.55;;;;;;;;;;5079642;28;20047;-65
2024/03/26 05:43:31;;;;;;;8.63;5.20;;;5.40;81.90;;;;;;5079023;28;20048;-65
2024/03/26 05:45:57;;;;;;;10.25;5.70;;;5.30;98.10;;;;;;5087310;28;20040;-64
2024/03/26 05:48:23;;;;;;;10.20;5.32;;;5.60;98.00;;;;;;5085885;28;20336;-66
2024/03/26 05:50:50;;;;;;;8.95;4.82;;;5.20;97.70;;;;;;5079848;28;20096;-66
2024/03/26 05:53:15;;;;;;;8.55;5.55;;;5.50;97.60;;;;;;5079789;28;20052;-67
2024/03/26 05:55:42;;;;;;;9.07;5.60;;;5.60;97.90;;;;;;5079165;28;20040;-66
2024/03/26 05:58:08;;;;;;;10.20;5.88;;;5.70;97.50;;;;;;5064268;28;20028;-66
2024/03/26 06:00:33;;;;;;;9.27;5.65;;;5.60;81.40;;;;;;5064376;28;20031;-67
2024/03/26 06:03:00;;;;;;;8.70;5.18;;;5.70;81.00;;;;;;5078847;28;20085;-67
2024/03/26 06:05:26;;;;;;;8.70;5.85;;;5.80;97.20;;;;;;5095898;28;20393;-65
2024/03/26 06:07:52;;;;;;;9.27;5.22;;;6.00;97.10;;;;;;5091635;28;20040;-66
2024/03/26 06:10:18;;;;;;;10.32;5.47;;;6.20;96.60;;;;;;5045075;28;20216;-65
2024/03/26 06:12:43;;;;;;;11.40;5.95;;;6.00;79.00;;;;;;5079019;28;20340;-65
2024/03/26 06:15:09;;;;;;;12.02;5.68;;;6.20;78.50;;;;;;5081500;28;20104;-65
2024/03/26 06:17:35;;;;;;;10.70;5.65;;;6.60;95.80;;;;;;5079041;28;20032;-65
2024/03/26 06:20:01;;;;;;;8.88;5.55;;;6.30;95.60;;;;;;5060717;28;20041;-65
2024/03/26 06:22:26;;;;;;;8.75;5.18;;;6.30;77.00;;;;;;5079171;28;20088;-65
2024/03/26 06:24:55;;;;;;;13.48;5.60;;;6.40;75.20;;;;;;5087236;28;20056;-65
2024/03/26 06:27:20;;;;;;;10.20;6.03;;;6.50;75.70;;;;;;5060965;28;20018;-65
2024/03/26 06:29:46;;;;;;;9.88;6.15;;;6.60;75.30;;;;;;5061345;28;20269;-66
2024/03/26 06:32:12;;;;;;;9.88;5.43;;;6.60;75.00;;;;;;5085448;28;20323;-65
2024/03/26 06:34:38;;;;;;;7.72;4.97;;;6.70;75.40;;;;;;5079283;28;20284;-64
2024/03/26 06:37:04;;;;;;;9.52;6.25;;;6.80;74.20;;;;;;5080954;28;20251;-64
2024/03/26 06:39:30;;;;;;;7.93;5.82;;;6.90;93.80;;;;;;5078866;28;20040;-64
2024/03/26 06:41:56;;;;;;;9.27;5.55;;;7.00;94.50;;;;;;5078482;28;20068;-64
2024/03/26 06:44:22;;;;;;;8.50;4.97;;;7.10;93.50;;;;;;5060546;28;20085;-64
2024/03/26 06:46:48;;;;;;;10.05;5.55;;;7.70;73.10;;;;;;5080946;28;20036;-64
2024/03/26 06:49:15;;;;;;;8.90;5.38;;;7.30;93.00;;;;;;5078969;28;20036;-65
2024/03/26 06:51:41;;;;;;;10.02;5.20;;;7.30;72.30;;;;;;5060829;28;20103;-64
2024/03/26 06:54:07;;;;;;;8.13;5.50;;;7.40;71.80;;;;;;5082780;28;20056;-65
2024/03/26 06:56:33;;;;;;;9.63;6.07;;;8.90;72.00;;;;;;5086143;28;20032;-65
2024/03/26 06:59:00;;;;;;;11.38;6.68;;;7.60;70.80;;;;;;5077993;28;20032;-65
2024/03/26 07:01:26;;;;;;;8.75;5.13;;;7.80;70.00;;;;;;5077165;28;20029;-70
2024/03/26 07:03:52;;;;;;;7.60;5.45;;;7.90;69.60;;;;;;5080220;28;20036;-65
2024/03/26 07:06:17;;;;;;;9.68;5.40;;;8.00;69.20;;;;;;5087549;28;20344;-65
2024/03/26 07:08:44;;;;;;;7.90;5.32;;;8.10;69.00;;;;;;5100022;28;20046;-63
2024/03/26 07:11:10;;;;;;;5.93;4.35;;;8.20;68.30;;;;;;5084258;28;20036;-65
2024/03/26 07:13:36;;;;;;;7.88;5.32;;;8.60;91.10;;;;;;5086742;28;20024;-64
2024/03/26 07:16:04;;;;;;;7.57;5.25;;;8.50;67.40;;;;;;5083751;28;20056;-64
2024/03/26 07:18:32;;;;;;;7.65;5.05;;;8.60;67.10;;;;;;5081609;28;20041;-64
2024/03/26 07:20:58;;;;;;;7.47;4.75;;;8.70;66.30;;;;;;5081815;28;20028;-63
2024/03/26 07:23:28;;;;;;;9.18;5.38;;;8.80;66.10;;;;;;5082523;28;20250;-64
2024/03/26 07:25:54;;;;;;;7.57;5.38;;;8.90;65.30;;;;;;5081814;28;20043;-63
2024/03/26 07:28:19;;;;;;;8.15;5.20;;;9.00;65.70;;;;;;5082108;28;20317;-64
2024/03/26 07:30:46;;;;;;;10.77;5.85;;;9.00;87.10;;;;;;5080649;28;20379;-64
2024/03/26 07:33:11;;;;;;;8.93;6.03;;;9.10;64.60;;;;;;5080681;28;20098;-64
2024/03/26 07:35:37;;;;;;;8.88;5.35;;;9.20;64.40;;;;;;5062315;28;20066;-64
2024/03/26 07:38:03;;;;;;;8.10;5.57;;;9.50;85.30;;;;;;5079739;28;20045;-64
2024/03/26 07:40:29;;;;;;;10.57;5.85;;;9.50;63.10;;;;;;5080343;28;20060;-63
2024/03/26 07:42:55;;;;;;;9.52;5.80;;;9.60;62.40;;;;;;5079924;28;20024;-64
2024/03/26 07:45:21;;;;;;;11.93;6.18;;;9.60;63.10;;;;;;5080140;28;20112;-64
2024/03/26 07:47:47;;;;;;;10.32;6.40;;;9.70;84.50;;;;;;5080469;28;20021;-64
2024/03/26 07:50:12;;;;;;;7.82;5.30;;;9.90;84.50;;;;;;5081029;28;20047;-64
2024/03/26 07:52:38;;;;;;;9.32;6.25;;;9.90;83.30;;;;;;5087430;28;20314;-64
2024/03/26 07:55:05;;;;;;;10.63;5.90;;;9.80;80.90;;;;;;5101128;28;20236;-64
2024/03/26 07:57:32;;;;;;;10.40;6.97;;;10.20;68.20;;;;;;5105264;28;20036;-64
2024/03/26 07:59:58;;;;;;;10.40;5.10;;;;;;;;;;5101399;28;20028;-64
2024/03/26 08:02:24;;;;;;;10.43;6.32;;;;;;;;;;5101347;28;20036;-65
2024/03/26 08:04:52;;;;;;;8.27;5.43;;;;;;;;;;5101470;28;20040;-64
2024/03/26 08:07:17;;;;;;;9.10;5.68;;;10.70;66.10;;;;;;5101277;28;20065;-64
2024/03/26 08:09:43;;;;;;;10.95;5.78;;;10.50;75.70;;;;;;5101495;28;20032;-63
2024/03/26 08:12:09;;;;;;;8.63;5.90;;;;;;;;;;5101011;28;20036;-64
2024/03/26 08:14:37;;;;;;;7.65;5.40;;;;;;;;;;5101422;28;20081;-64
2024/03/26 08:17:03;;;;;;;9.35;6.25;;;10.80;75.40;;;;;;5083653;28;20051;-64
2024/03/26 08:19:29;;;;;;;10.23;6.35;;;;;;;;;;5101135;28;20035;-64
2024/03/26 08:21:56;;;;;;;10.57;5.45;;;;;;;;;;5100966;28;20032;-64
2024/03/26 08:24:21;;;;;;;10.43;4.07;;;11.00;57.80;;;;;;5101034;28;20039;-64
2024/03/26 08:26:47;;;;;;;9.20;5.53;;;10.80;63.90;;;;;;5101116;28;20036;-64
2024/03/26 08:29:13;;;;;;;8.60;5.40;;;11.20;77.50;;;;;;5100570;28;20039;-64
2024/03/26 08:31:39;;;;;;;10.65;6.50;;;11.10;75.20;;;;;;5104698;28;20052;-64
2024/03/26 08:34:05;;;;;;;9.50;6.85;;;;;;;;;;5100636;28;20320;-64
2024/03/26 08:36:31;;;;;;;12.82;5.63;;;;;;;;;;5100361;28;20074;-63
2024/03/26 08:38:57;;;;;;;10.75;6.60;;;;;;;;;;5100580;28;20051;-64
2024/03/26 08:41:22;;;;;;;9.20;6.78;;;11.80;65.60;;;;;;5070552;28;20100;-64
2024/03/26 08:43:48;;;;;;;9.95;6.82;;;11.70;70.70;;;;;;5077382;28;20039;-64
2024/03/26 08:46:14;;;;;;;10.07;6.40;;;;;;;;;;5103321;28;20041;-64
2024/03/26 08:48:40;;;;;;;10.27;6.00;;;11.80;73.20;;;;;;5104969;28;20040;-64
2024/03/26 08:51:05;;;;;;;11.82;6.70;;;12.00;72.50;;;;;;5100181;28;20362;-64
2024/03/26 08:53:31;;;;;;;10.13;6.22;;;12.20;55.20;;;;;;5086818;28;20058;-64
2024/03/26 08:55:57;;;;;;;9.07;5.97;;;;;;;;;;5080362;28;20044;-64
2024/03/26 08:58:23;;;;;;;9.60;5.82;;;12.60;70.00;;;;;;5071962;28;20060;-64
2024/03/26 09:00:49;;;;;;;14.02;5.80;;;;;;;;;;5080152;28;20035;-64
2024/03/26 09:03:15;;;;;;;9.65;6.13;;;;;;;;;;5079748;28;20055;-65
2024/03/26 09:05:41;;;;;;;7.63;4.88;;;;;;;;;;5080559;28;20032;-65
2024/03/26 09:08:08;;;;;;;6.55;4.50;;;13.00;55.30;;;;;;5079751;28;20028;-64
2024/03/26 09:10:34;;;;;;;6.93;5.53;;;;;;;;;;5079896;28;20081;-65
2024/03/26 09:13:00;;;;;;;7.40;4.75;;;;;;;;;;5061599;28;20041;-65
2024/03/26 09:15:26;;;;;;;8.23;4.45;;;;;;;;;;5080030;28;20095;-65
2024/03/26 09:17:53;;;;;;;7.40;4.90;;;;;;;;;;5079865;28;20224;-65
2024/03/26 09:20:19;;;;;;;8.27;5.10;;;;;;;;;;5061506;28;20040;-65
2024/03/26 09:22:46;;;;;;;10.18;6.47;;;14.10;50.30;;;;;;5080085;28;20317;-65
2024/03/26 09:25:12;;;;;;;6.10;3.80;;;;;;;;;;5078632;28;20044;-65
2024/03/26 09:27:38;;;;;;;7.22;4.50;;;;;;;;;;5079609;28;20103;-65
2024/03/26 09:30:04;;;;;;;5.68;4.55;;;14.10;48.60;;;;;;5083353;28;20043;-65
2024/03/26 09:32:30;;;;;;;6.32;4.40;;;14.00;49.50;;;;;;5079339;28;20058;-65
2024/03/26 09:34:56;;;;;;;11.82;4.88;;;14.40;54.80;;;;;;5082186;28;20040;-65
2024/03/26 09:37:22;;;;;;;7.97;5.35;;;;;;;;;;5079597;28;20036;-65
2024/03/26 09:39:47;;;;;;;7.70;3.80;;;14.70;52.70;;;;;;5080086;28;20028;-65
2024/03/26 09:42:14;;;;;;;12.70;4.50;;;;;;;;;;5061303;28;20036;-65
2024/03/26 09:44:43;;;;;;;10.45;4.22;;;14.80;46.00;;;;;;5079304;28;20052;-65
2024/03/26 09:47:09;;;;;;;6.28;3.90;;;14.90;59.00;;;;;;5083577;28;20212;-65
2024/03/26 09:49:38;;;;;;;8.75;4.10;;;15.10;59.10;;;;;;5079408;28;20632;-65
2024/03/26 09:52:09;;;;;;;10.10;4.17;;;14.90;56.40;;;;;;5079296;28;20516;-64
2024/03/26 09:54:35;;;;;;;8.82;4.18;;;15.00;57.40;;;;;;5080017;28;20281;-65
2024/03/26 09:57:02;;;;;;;5.68;2.25;;;;;;;;;;5079684;28;20056;-65
2024/03/26 09:59:28;;;;;;;4.40;2.30;;;15.10;47.50;;;;;;5079266;28;20028;-65
2024/03/26 10:02:06;;;;;;;3.13;2.40;;;15.40;42.50;;;;;;5079603;28;20418;-65
2024/03/26 10:04:32;;;;;;;3.40;2.23;;;15.30;49.30;;;;;;5061209;28;20036;-65
2024/03/26 10:06:58;;;;;;;5.65;2.20;;;;;;;;;;5065957;28;20066;-65
2024/03/26 10:09:24;;;;;;;3.60;2.30;;;;;;;;;;5085858;28;20103;-65
2024/03/26 10:11:50;;;;;;;4.55;1.85;;;15.70;52.00;;;;;;5079984;28;20158;-64
2024/03/26 10:14:16;;;;;;;3.65;1.75;;;;;;;;;;5082138;28;20339;-64
2024/03/26 10:16:43;;;;;;;5.60;1.65;;;;;;;;;;5081652;28;20036;-64
2024/03/26 10:19:09;;;;;;;5.68;2.17;;;15.80;51.90;;;;;;5078925;28;20077;-64
2024/03/26 10:21:35;;;;;;;3.35;2.65;;;;;;;;;;5079412;28;20036;-64
2024/03/26 10:24:02;;;;;;;2.83;2.00;;;;;;;;;;5078932;28;20243;-65
2024/03/26 10:26:28;;;;;;;3.10;1.98;;;15.90;39.20;;;;;;5085496;28;20027;-64
2024/03/26 10:28:54;;;;;;;4.32;2.35;;;;;;;;;;5079271;28;20044;-63
2024/03/26 10:31:20;;;;;;;4.20;2.00;;;;;;;;;;5086308;28;20086;-64
2024/03/26 10:33:50;;;;;;;3.20;2.00;;;16.00;38.70;;;;;;5078948;28;20063;-63
2024/03/26 10:36:16;;;;;;;2.40;2.00;;;16.00;39.00;;;;;;5079428;28;20036;-64
2024/03/26 10:38:42;;;;;;;3.40;2.03;;;17.10;39.90;;;;;;5087005;28;20036;-64
2024/03/26 10:41:27;;;;;;;3.30;2.40;;;16.30;39.30;;;;;;5085449;28;20044;-64
2024/03/26 10:43:55;;;;;;;3.75;2.13;;;16.40;39.60;;;;;;5082608;28;20067;-64
2024/03/26 10:46:20;;;;;;;5.22;2.00;;;16.50;41.10;;;;;;5083287;28;20120;-64
2024/03/26 10:48:46;;;;;;;3.15;1.88;;;;;;;;;;5082555;28;20024;-64
2024/03/26 10:51:13;;;;;;;4.85;1.80;;;16.70;38.40;;;;;;5082552;28;20044;-64
2024/03/26 10:53:39;;;;;;;3.33;1.40;;;17.10;38.60;;;;;;5082436;28;20415;-64
2024/03/26 10:56:07;;;;;;;2.00;1.25;;;17.30;37.80;;;;;;5084500;28;20056;-64
2024/03/26 10:58:36;;;;;;;2.08;1.42;;;17.60;37.40;;;;;;5084889;28;20035;-64
2024/03/26 11:01:04;;;;;;;2.13;1.27;;;17.70;47.90;;;;;;5082620;28;20065;-64
2024/03/26 11:03:32;;;;;;;3.95;1.20;;;17.90;36.50;;;;;;5082751;28;20032;-64
2024/03/26 11:05:58;;;;;;;2.55;1.50;;;17.90;36.20;;;;;;5082522;28;20044;-64
2024/03/26 11:08:24;;;;;;;1.77;1.23;;;17.80;42.10;;;;;;5076552;28;20028;-64
2024/03/26 11:11:00;;;;;;;2.10;1.13;;;17.90;36.10;;;;;;5082297;28;20103;-64
2024/03/26 11:13:31;;;;;;;2.90;1.67;;;18.00;46.90;;;;;;5084483;28;20100;-64
2024/03/26 11:15:57;;;;;;;1.48;1.10;;;17.70;38.90;;;;;;5069763;28;20058;-64
2024/03/26 11:18:33;;;;;;;3.58;1.00;;;17.70;46.60;;;;;;5096090;28;20515;-64
2024/03/26 11:21:06;;;;;;;3.67;1.10;;;17.80;35.60;;;;;;5082219;28;20130;-64
2024/03/26 11:23:43;;;;;;;2.00;1.25;;;18.00;35.30;;;;;;5081477;28;20040;-64
2024/03/26 11:26:25;;;;;;;8.10;1.40;;;18.10;43.00;;;;;;5081527;28;20033;-63
2024/03/26 11:28:51;;;;;;;1.48;1.10;;;;;;;;;;5082258;28;20039;-64
2024/03/26 11:31:23;;;;;;;2.88;1.10;;;18.40;45.40;;;;;;5088962;28;20308;-64
2024/03/26 11:33:55;;;;;;;3.90;1.10;;;18.60;45.30;;;;;;5081143;28;20081;-63
2024/03/26 11:36:21;;;;;;;1.95;0.88;;;;;;;;;;5081843;28;20032;-64
2024/03/26 11:38:50;;;;;;;1.75;1.00;;;18.50;33.40;;;;;;5082490;28;20060;-64
2024/03/26 11:41:16;;;;;;;1.75;0.80;;;;;;;;;;5063862;28;20036;-64
2024/03/26 11:43:43;;;;;;;1.85;0.98;;;18.40;33.40;;;;;;5080334;28;20111;-63
2024/03/26 11:46:09;;;;;;;2.15;0.90;;;;;;;;;;5080100;28;20435;-64
2024/03/26 11:48:35;;;;;;;2.70;0.80;;;;;;;;;;5079328;28;20367;-63
2024/03/26 11:51:01;;;;;;;3.45;1.25;;;;;;;;;;5062089;28;20028;-63
2024/03/26 11:53:27;;;;;;;1.58;1.15;;;;;;;;;;5093593;28;20064;-63
2024/03/26 11:55:54;;;;;;;4.30;1.25;;;;;;;;;;5103396;28;20039;-64
2024/03/26 11:58:26;;;;;;;3.30;1.00;;;18.30;32.20;;;;;;5101569;28;20316;-64
2024/03/26 12:00:52;;;;;;;2.13;1.00;;;;;;;;;;5101732;28;20107;-64
2024/03/26 12:03:18;;;;;;;2.10;0.80;;;18.50;36.00;;;;;;5101450;28;20095;-63
2024/03/26 12:05:44;;;;;;;1.88;1.17;;;;;;;;;;5105355;28;20157;-64
2024/03/26 12:08:11;;;;;;;3.30;1.13;;;18.90;31.90;;;;;;5101173;28;20059;-64
2024/03/26 12:10:36;;;;;;;6.53;1.30;;;19.00;38.50;;;;;;5102273;28;20028;-64
2024/03/26 12:13:04;;;;;;;2.33;1.70;;;19.40;33.30;;;;;;5101311;28;20095;-64
2024/03/26 12:15:31;;;;;;;2.47;1.00;;;19.50;31.30;;;;;;5101390;28;20077;-64
2024/03/26 12:17:59;;;;;;;0.90;0.73;;;;;;;;;;5101554;28;20036;-64
2024/03/26 12:20:26;;;;;;;1.35;1.10;;;20.10;30.90;;;;;;5071039;28;20067;-64
2024/03/26 12:22:52;;;;;;;2.88;1.00;;;20.20;33.00;;;;;;5096841;28;20047;-63
2024/03/26 12:25:18;;;;;;;3.10;1.30;;;;;;;;;;5101039;28;20036;-64
2024/03/26 12:27:44;;;;;;;2.00;1.13;;;20.40;39.70;;;;;;5101619;28;20035;-64
2024/03/26 12:30:11;;;;;;;2.17;0.90;;;20.60;30.30;;;;;;5082403;28;20032;-63
2024/03/26 12:32:37;;;;;;;1.25;0.63;;;20.50;38.10;;;;;;5082222;28;20380;-64
2024/03/26 12:35:03;;;;;;;1.30;0.75;;;20.70;34.90;;;;;;5100760;28;20028;-64
2024/03/26 12:37:30;;;;;;;2.03;0.95;;;21.00;35.80;;;;;;5100899;28;20073;-64
2024/03/26 12:39:56;;;;;;;4.65;1.00;;;20.80;37.10;;;;;;5100571;28;20138;-64
2024/03/26 12:42:22;;;;;;;3.53;0.90;;;;;;;;;;5100694;28;20039;-64
2024/03/26 12:44:48;;;;;;;5.47;1.00;;;21.00;36.80;;;;;;5101237;28;20212;-64
2024/03/26 12:47:13;;;;;;;1.88;1.20;;;21.20;37.50;;;;;;5108932;28;20036;-64
2024/03/26 12:49:39;;;;;;;0.73;0.70;;;21.60;37.10;;;;;;5100817;28;20028;-64
2024/03/26 12:52:05;;;;;;;4.88;1.05;;;21.30;29.10;;;;;;5100452;28;20082;-64
2024/03/26 12:54:31;;;;;;;2.85;0.82;;;21.00;37.20;;;;;;5082489;28;20340;-64
2024/03/26 12:56:57;;;;;;;2.65;0.82;;;21.70;37.70;;;;;;5100490;28;20048;-64
2024/03/26 12:59:23;;;;;;;1.67;0.82;;;21.60;38.10;;;;;;5072969;28;20032;-64
2024/03/26 13:01:49;;;;;;;3.75;0.90;;;21.70;29.00;;;;;;5095724;28;20032;-64
2024/03/26 13:04:16;;;;;;;1.15;1.00;;;24.60;33.70;;;;;;5100155;28;20066;-65